• Join FlightAware (Why Join?)
  • Login
  • US Flag 
11:37AM EDT


 

Airport Tracker/Info


-or-


 

Live Flight TrackerFlight Track Log ✈ SKW4664 ✈ 17-Jun-2013 ✈ KMSN - KMSP

Flight Track Log - Related Links

Times and Time Zones

All times are in EDT time to prevent confusion due to time zone crossing. See the SKW4664 flight status page for this flight to view local times or setup timezone preferences in your user account.

Time Position Orientation Groundspeed Altitude Reporting Facility
EDT Latitude Longitude Course Direction KTS MPH feet Rate Location/Type
10:39AM 43.1783 -89.3639 285° West 161 185 2,700  Level Chicago Center
10:40AM 43.1897 -89.4411 281° West 203 234 4,400 1,980 Climbing Chicago Center
10:41AM 43.2136 -89.7240 295° West  Level FlightAware Approximate
10:41AM 43.2042 -89.5367 282° West 242 278 6,900  Level Chicago Center
10:42AM 43.2322 -89.8576 280° West  Level FlightAware Approximate
10:42AM 43.2208 -89.6489 282° West 255 293 10,000  Level Chicago Center
10:43AM 43.2614 -89.9879 288° West  Level FlightAware Approximate
10:43AM 43.2367 -89.7550 282° West 279 321 12,000  Level Chicago Center
10:44AM 43.2839 -90.1196 285° West  Level FlightAware Approximate
10:44AM 43.2525 -89.8675 281° West 296 341 14,600  Level Chicago Center
10:45AM 43.2703 -89.9786 282° West 297 342 16,400 1,620 Climbing Chicago Center
10:46AM 43.2872 -90.0922 282° West 302 348 18,000 1,680 Climbing Chicago Center
10:47AM 43.3114 -90.2269 284° West 310 357 19,900 1,380 Climbing Chicago Center
10:48AM 43.3344 -90.3253 288° West 318 366 20,900 960 Climbing Chicago Center
10:49AM 43.3644 -90.4700 286° West 329 379 22,000 480 Climbing Chicago Center
10:50AM 43.3906 -90.6014 285° West 353 406 22,000  Level Chicago Center
10:51AM 43.4194 -90.7406 286° West 376 433 22,000  Level Chicago Center
10:52AM 43.4475 -90.8814 285° West 385 443 22,000  Level Chicago Center
10:53AM 43.4831 -91.0553 286° West 398 458 22,000  Level Chicago Center
10:55AM 43.5125 -91.2014 286° West 402 463 22,000  Level Chicago Center
10:56AM 43.5411 -91.3464 285° West 399 459 22,000  Level Chicago Center
10:57AM 43.5708 -91.4900 286° West 397 457 22,000  Level Chicago Center
10:58AM 43.5989 -91.6322 285° West 392 451 22,000  Level Chicago Center
10:59AM 43.6306 -91.8031 284° West 389 448 22,000 -120 Level Chicago Center
11:00AM 43.6303 -91.9283 270° West 337 388 21,800  Descending Chicago Center
11:01AM 43.6297 -92.0422 270° West 307 353 22,000 60 Climbing Chicago Center
11:02AM 43.6292 -92.1586 270° West 306 352 22,000  Level Chicago Center
11:03AM 43.6311 -92.2997 271° West 314 361 22,000  Level Minneapolis Center
11:04AM 43.6319 -92.4183 271° West 313 360 22,000  Level Minneapolis Center
11:05AM 43.6333 -92.5403 271° West 319 367 22,000  Level Minneapolis Center
11:06AM 43.6325 -92.6997 270° West 345 397 22,000  Level Minneapolis Center
11:07AM 43.6319 -92.8333 270° West 350 403 22,000  Level Minneapolis Center
11:08AM 43.6317 -92.9636 270° West 347 399 22,000  Level Minneapolis Center
11:09AM 43.7019 -93.0361 323° Northwest 344 396 22,000 -60 Level Minneapolis Center
11:10AM 43.7950 -93.0681 346° North 347 399 21,900 -1,440 Descending Minneapolis Center
11:11AM 43.8992 -93.1058 345° North 349 402 19,100 -2,640 Descending Minneapolis Center
11:12AM 43.9911 -93.1397 345° North 345 397 16,500 -2,760 Descending Minneapolis Center
11:13AM 44.0994 -93.1758 347° North 337 388 13,400 -2,700 Descending Minneapolis Center
11:14AM 44.1861 -93.2061 346° North 321 369 11,000 -1,680 Descending Minneapolis Center
11:15AM 44.2639 -93.2183 354° North 283 326 10,000 -540 Descending Minneapolis Center
11:16AM 44.3417 -93.2106 North 280 322 10,000 -780 Level Minneapolis Center
11:17AM 44.4181 -93.2075 North 274 315 8,500 -1,500 Descending Minneapolis Center
11:18AM 44.4922 -93.2047 North 269 310 7,000 -1,140 Descending Minneapolis Center
11:19AM 44.5783 -93.2008 North 261 300 6,200 -1,260 Descending Minneapolis Center
11:20AM 44.6472 -93.1986 North 252 290 4,400 -1,140 Descending Minneapolis Center
11:21AM 44.7114 -93.1981 360° North 229 264 3,900 -540 Descending Minneapolis Center